Discovery Coast — WDG2458 — position and weather

sailwx.info

Track history (hours):
 
Tides and Currents Weather Stations Pressure Air Temp Water Temp Dewpoint Dewpoint Depression Visibility Wind Speed Wind Dir Waves Ship Positions

Discovery Coast

Owner: Dann Marine Towing, LC, Chesapeake City, MD. More information available from US FCC via Universal Licensing System.

Last reported at 2017-Nov-19 08:00 UTC. Time now 2017-Nov-19 08:30 UTC.
Position N 39°24' W 076°04'.

Length 31 m; draft 4.3 m.

Type: Tug. MMSI: 367515850.

Date/timePositionNaut miles runAvg speedWind from/ knotsBaromVisibWave heightAir tempDewpointWater temp
2017-Nov-19 08:00N 39°24' W 076°04'3 5.6
2017-Nov-19 07:30N 39°22' W 076°07'3 5.4
2017-Nov-19 07:00N 39°21' W 076°10'14 6.2
2017-Nov-19 04:45N 39°09' W 076°19'2 7.4
2017-Nov-19 04:30N 39°09' W 076°22'4 7.9
2017-Nov-19 04:00N 39°11' W 076°26'3 5.4
2017-Nov-19 03:30N 39°13' W 076°29'0 0.4
2017-Nov-19 03:00N 39°13' W 076°29'0 0.0
2017-Nov-19 02:30N 39°13' W 076°29'0 0.0
2017-Nov-19 02:00N 39°13' W 076°29'0 0.0
2017-Nov-19 01:30N 39°13' W 076°29'0 0.0
2017-Nov-19 01:00N 39°13' W 076°29'0 0.0
2017-Nov-19 00:30N 39°13' W 076°29'0 0.0
2017-Nov-19 00:00N 39°13' W 076°29'0 0.0
2017-Nov-18 23:30N 39°13' W 076°29'0 0.0
2017-Nov-18 23:00N 39°13' W 076°29'0 0.0
2017-Nov-18 22:30N 39°13' W 076°29'0 0.0
2017-Nov-18 22:00N 39°13' W 076°29'0 0.0
2017-Nov-18 21:30N 39°13' W 076°29'0 0.0
2017-Nov-18 21:00N 39°13' W 076°29'0 0.0
2017-Nov-18 20:30N 39°13' W 076°29'0 0.0
2017-Nov-18 20:00N 39°13' W 076°29'0 0.0
2017-Nov-18 19:30N 39°13' W 076°29'0 0.0
2017-Nov-18 19:00N 39°13' W 076°29'0 0.0
2017-Nov-18 18:30N 39°13' W 076°29'0 0.0
2017-Nov-18 18:00N 39°13' W 076°29'0 0.0
2017-Nov-18 17:30N 39°13' W 076°29'0 0.0
2017-Nov-18 17:00N 39°13' W 076°29'0 0.0
2017-Nov-18 16:30N 39°13' W 076°29'0 0.0
2017-Nov-18 16:00N 39°13' W 076°29'0 0.0
2017-Nov-18 15:30N 39°13' W 076°29'0 0.0
2017-Nov-18 15:00N 39°13' W 076°29'0 0.0
2017-Nov-18 14:30N 39°13' W 076°29'0 0.0
2017-Nov-18 14:00N 39°13' W 076°29'0 0.0
2017-Nov-18 13:30N 39°13' W 076°29'0 0.0
2017-Nov-18 13:00N 39°13' W 076°29'0 0.0
2017-Nov-18 12:30N 39°13' W 076°29'0 0.0
2017-Nov-18 12:00N 39°13' W 076°29'0 0.0
2017-Nov-18 11:30N 39°13' W 076°29'0 0.0
2017-Nov-18 11:00N 39°13' W 076°29'0 0.0
2017-Nov-18 10:30N 39°13' W 076°29'0 0.0
2017-Nov-18 10:00N 39°13' W 076°29'0 0.0
2017-Nov-18 09:30N 39°13' W 076°29'0 0.0
2017-Nov-18 09:00N 39°13' W 076°29'0 0.0
2017-Nov-18 08:30N 39°13' W 076°29'0 0.0
2017-Nov-18 08:00N 39°13' W 076°29'0 0.0
2017-Nov-18 07:30N 39°13' W 076°29'0 0.0
2017-Nov-18 07:00N 39°13' W 076°29'0 0.0
2017-Nov-18 06:30N 39°13' W 076°29'0 0.0
2017-Nov-18 06:00N 39°13' W 076°29'0 0.0
2017-Nov-18 05:30N 39°13' W 076°29'0 0.0
2017-Nov-18 05:00N 39°13' W 076°29'0 0.0
2017-Nov-18 04:30N 39°13' W 076°29'0 0.0
2017-Nov-18 04:00N 39°13' W 076°29'0 0.0
2017-Nov-18 03:30N 39°13' W 076°29'0 0.0
2017-Nov-18 03:00N 39°13' W 076°29'0 0.0
2017-Nov-18 02:30N 39°13' W 076°29'0 0.0
2017-Nov-18 02:00N 39°13' W 076°29'0 0.0
2017-Nov-18 01:30N 39°13' W 076°29'0 0.0
2017-Nov-18 01:00N 39°13' W 076°29'0 0.0
2017-Nov-18 00:30N 39°13' W 076°29'0 0.0
2017-Nov-18 00:00N 39°13' W 076°29'0 0.0
2017-Nov-17 23:30N 39°13' W 076°29'0 0.0
2017-Nov-17 23:00N 39°13' W 076°29'0 0.0
2017-Nov-17 20:26N 39°13' W 076°29'0 0.3
2017-Nov-17 20:00N 39°13' W 076°29'0 0.2
2017-Nov-17 19:30N 39°13' W 076°29'0 0.0
2017-Nov-17 19:00N 39°13' W 076°29'0 0.0
2017-Nov-17 18:30N 39°13' W 076°29'0 0.5
2017-Nov-17 18:00N 39°12' W 076°29'4 7.5
2017-Nov-17 17:30N 39°14' W 076°33'1 1.6
2017-Nov-17 17:00N 39°15' W 076°34'0 0.0
2017-Nov-17 16:30N 39°15' W 076°34'0 0.0
2017-Nov-17 16:00N 39°15' W 076°34'0 0.0
2017-Nov-17 15:30N 39°15' W 076°34'0 0.0
2017-Nov-17 15:00N 39°15' W 076°34'0 0.0
2017-Nov-17 14:30N 39°15' W 076°34'0 0.0
2017-Nov-17 14:00N 39°15' W 076°34'0 0.0
2017-Nov-17 13:30N 39°15' W 076°34'0 0.0
2017-Nov-17 13:00N 39°15' W 076°34'0 0.0
2017-Nov-17 12:30N 39°15' W 076°34'0 0.0
2017-Nov-17 12:00N 39°15' W 076°34'0 0.0
2017-Nov-17 11:30N 39°15' W 076°34'0 0.0
2017-Nov-17 11:00N 39°15' W 076°34'0 0.0
2017-Nov-17 10:30N 39°15' W 076°34'0 0.0
2017-Nov-17 10:00N 39°15' W 076°34'0 0.0
2017-Nov-17 09:30N 39°15' W 076°34'0 0.0
2017-Nov-17 09:00N 39°15' W 076°34'0 0.0
2017-Nov-17 08:30N 39°15' W 076°34'0 0.0
2017-Nov-17 08:00N 39°15' W 076°34'0 0.0
2017-Nov-17 07:30N 39°15' W 076°34'1 1.3
2017-Nov-17 07:00N 39°15' W 076°33'4 8.1
2017-Nov-17 06:30N 39°12' W 076°30'1 2.0
2017-Nov-17 06:00N 39°13' W 076°29'0 0.4
2017-Nov-17 05:30N 39°13' W 076°29'2 3.6
2017-Nov-17 05:00N 39°11' W 076°27'8 7.7
2017-Nov-17 03:59N 39°11' W 076°17'6 9.7
2017-Nov-17 03:21N 39°16' W 076°14'4 9.9
2017-Nov-17 03:00N 39°19' W 076°12'5 9.9
2017-Nov-17 02:30N 39°22' W 076°07'5 9.1
2017-Nov-17 02:00N 39°25' W 076°02'4 8.8
2017-Nov-17 01:30N 39°28' W 075°58'4 8.1
2017-Nov-17 01:00N 39°30' W 075°54'3 7.0
2017-Nov-17 00:30N 39°32' W 075°50'3 6.6
2017-Nov-17 00:00N 39°32' W 075°46'3 6.6
2017-Nov-16 23:30N 39°33' W 075°42'3 6.4
2017-Nov-16 23:00N 39°33' W 075°38'3 6.5
2017-Nov-16 22:30N 39°34' W 075°33'3 6.4
2017-Nov-16 22:00N 39°30' W 075°33'3 7.0
2017-Nov-16 21:30N 39°27' W 075°33'4 7.1
2017-Nov-16 21:00N 39°24' W 075°30'3 6.7
2017-Nov-16 20:30N 39°22' W 075°27'3 6.5
2017-Nov-16 20:00N 39°19' W 075°24'3 6.2
2017-Nov-16 19:30N 39°17' W 075°22'3 6.6
2017-Nov-16 19:00N 39°15' W 075°19'3 6.5
2017-Nov-16 18:30N 39°12' W 075°17'3 6.1
2017-Nov-16 18:00N 39°09' W 075°15'4 7.0
2017-Nov-16 17:30N 39°06' W 075°12'4 7.4
2017-Nov-16 16:59N 39°03' W 075°10'4 7.6
2017-Nov-16 16:30N 38°59' W 075°08'4 7.3
2017-Nov-16 15:59N 38°56' W 075°06'13 4.4
2017-Nov-16 12:56N 38°50' W 074°50'51 7.3
2017-Nov-16 05:58N 39°30' W 074°09'3 7.5
2017-Nov-16 05:30N 39°33' W 074°07'4 7.5
2017-Nov-16 05:00N 39°36' W 074°04'4 7.4
2017-Nov-16 04:25N 39°40' W 074°02'3 7.5
2017-Nov-16 03:59N 39°43' W 073°60'4 7.5
2017-Nov-16 03:30N 39°46' W 073°58'38 7.7
2017-Nov-15 22:36N 40°24' W 073°53'2 7.7
2017-Nov-15 22:18N 40°26' W 073°53'2 7.5
2017-Nov-15 22:00N 40°29' W 073°54'3 6.3
2017-Nov-15 21:29N 40°30' W 073°57'3 5.7
2017-Nov-15 21:00N 40°32' W 074°01'3 6.2
2017-Nov-15 20:30N 40°34' W 074°02'3 6.4
2017-Nov-15 20:00N 40°38' W 074°03'1 2.5
2017-Nov-15 19:30N 40°39' W 074°02'2 4.5
2017-Nov-15 19:00N 40°41' W 074°01'2 4.7
2017-Nov-15 18:30N 40°42' W 073°59'1 1.3
2017-Nov-15 18:00N 40°42' W 073°58'0 0.0
2017-Nov-15 17:30N 40°42' W 073°58'0 0.0
2017-Nov-15 17:00N 40°42' W 073°58'0 0.0
2017-Nov-15 16:30N 40°42' W 073°58'0 0.0
2017-Nov-15 16:00N 40°42' W 073°58'0 0.0
2017-Nov-15 15:30N 40°42' W 073°58'0 0.2
2017-Nov-15 15:00N 40°43' W 073°58'0 0.0
2017-Nov-15 14:30N 40°43' W 073°58'0 0.0
2017-Nov-15 14:00N 40°43' W 073°58'0 0.0
2017-Nov-15 13:30N 40°43' W 073°58'0 0.0
2017-Nov-15 13:00N 40°43' W 073°58'0 0.0
2017-Nov-15 12:30N 40°43' W 073°58'0 0.0
2017-Nov-15 12:00N 40°43' W 073°58'0 0.0
2017-Nov-15 11:30N 40°43' W 073°58'0 0.0
2017-Nov-15 11:00N 40°43' W 073°58'0 0.0
2017-Nov-15 10:30N 40°43' W 073°58'0 0.0
2017-Nov-15 10:00N 40°43' W 073°58'0 0.0
2017-Nov-15 09:30N 40°43' W 073°58'0 0.0
2017-Nov-15 09:00N 40°43' W 073°58'0 0.0
2017-Nov-15 08:30N 40°43' W 073°58'0 0.0
2017-Nov-15 08:00N 40°43' W 073°58'0 0.0
2017-Nov-15 07:30N 40°43' W 073°58'0 0.0
2017-Nov-15 07:00N 40°43' W 073°58'0 0.0
2017-Nov-15 06:30N 40°43' W 073°58'0 0.0
2017-Nov-15 06:00N 40°43' W 073°58'0 0.0
2017-Nov-15 05:30N 40°43' W 073°58'0 0.0
2017-Nov-15 05:00N 40°43' W 073°58'0 0.0
2017-Nov-15 04:30N 40°43' W 073°58'0 0.0
2017-Nov-15 04:00N 40°43' W 073°58'0 0.0
2017-Nov-15 03:30N 40°43' W 073°58'0 0.0
2017-Nov-15 03:00N 40°43' W 073°58'0 0.0
2017-Nov-15 02:30N 40°43' W 073°58'0 0.0
2017-Nov-15 02:00N 40°43' W 073°58'0 0.0
2017-Nov-15 01:30N 40°43' W 073°58'0 0.0
2017-Nov-15 01:00N 40°43' W 073°58'0 0.0
2017-Nov-15 00:30N 40°43' W 073°58'0 0.0
2017-Nov-15 00:00N 40°43' W 073°58'0 0.0
2017-Nov-14 23:30N 40°43' W 073°58'0 0.0
2017-Nov-14 23:00N 40°43' W 073°58'0 0.0
2017-Nov-14 22:30N 40°43' W 073°58'0 0.0
2017-Nov-14 22:00N 40°43' W 073°58'0 0.0
2017-Nov-14 21:30N 40°43' W 073°58'0 0.0
2017-Nov-14 21:00N 40°43' W 073°58'0 0.0
2017-Nov-14 20:30N 40°43' W 073°58'0 0.0
2017-Nov-14 20:00N 40°43' W 073°58'0 0.0
2017-Nov-14 19:30N 40°43' W 073°58'0 0.0
2017-Nov-14 19:00N 40°43' W 073°58'0 0.0
2017-Nov-14 18:30N 40°43' W 073°58'0 0.0
2017-Nov-14 18:00N 40°43' W 073°58'0 0.0
2017-Nov-14 17:30N 40°43' W 073°58'0 0.0
2017-Nov-14 17:00N 40°43' W 073°58'0 0.0
2017-Nov-14 16:30N 40°43' W 073°58'0 0.0
2017-Nov-14 16:00N 40°43' W 073°58'0 0.0
2017-Nov-14 15:30N 40°43' W 073°58'0 0.0
2017-Nov-14 15:00N 40°43' W 073°58'0 0.0
2017-Nov-14 14:30N 40°43' W 073°58'0 0.0
2017-Nov-14 14:00N 40°43' W 073°58'0 0.0
2017-Nov-14 13:30N 40°43' W 073°58'0 0.0
2017-Nov-14 13:00N 40°43' W 073°58'0 0.0
2017-Nov-14 12:30N 40°43' W 073°58'0 0.0
2017-Nov-14 12:00N 40°43' W 073°58'0 0.0
2017-Nov-14 11:30N 40°43' W 073°58'0 0.0
2017-Nov-14 11:00N 40°43' W 073°58'0 0.0
2017-Nov-14 10:30N 40°43' W 073°58'0 0.0
2017-Nov-14 10:00N 40°43' W 073°58'0 0.0
2017-Nov-14 09:30N 40°43' W 073°58'0 0.0
2017-Nov-14 09:00N 40°43' W 073°58'0 0.0
2017-Nov-14 08:30N 40°43' W 073°58'0 0.0
2017-Nov-14 08:00N 40°43' W 073°58'0 0.0
2017-Nov-14 07:30N 40°43' W 073°58'0 0.0
2017-Nov-14 07:00N 40°43' W 073°58'0 0.0
2017-Nov-14 06:30N 40°43' W 073°58'0 0.0
2017-Nov-14 06:00N 40°43' W 073°58'0 0.0
2017-Nov-14 05:30N 40°43' W 073°58'0 0.0
2017-Nov-14 05:00N 40°43' W 073°58'0 0.0
2017-Nov-14 04:30N 40°43' W 073°58'0 0.0
2017-Nov-14 04:00N 40°43' W 073°58'0 0.0
2017-Nov-14 03:30N 40°43' W 073°58'0 0.0
2017-Nov-14 03:00N 40°43' W 073°58'0 0.0
2017-Nov-14 02:30N 40°43' W 073°58'0 0.0
2017-Nov-14 02:00N 40°43' W 073°58'0 0.0
2017-Nov-14 01:30N 40°43' W 073°58'0 0.0
2017-Nov-14 01:00N 40°43' W 073°58'0 0.0
2017-Nov-14 00:30N 40°43' W 073°58'0 0.0
2017-Nov-14 00:00N 40°43' W 073°58'0 0.0
2017-Nov-13 23:30N 40°43' W 073°58'0 0.0
2017-Nov-13 23:00N 40°43' W 073°58'0 0.0
2017-Nov-13 22:30N 40°43' W 073°58'0 0.0
2017-Nov-13 22:00N 40°43' W 073°58'52 2.6
2017-Nov-13 02:00N 39°51' W 073°58'4 7.1
2017-Nov-13 01:29N 39°47' W 073°58'6 6.8
2017-Nov-13 00:32N 39°41' W 074°01'8 6.8
2017-Nov-12 23:24N 39°34' W 074°06'3 6.8
2017-Nov-12 22:53N 39°31' W 074°08'38 6.7
2017-Nov-12 17:16N 39°02' W 074°38'4 6.3
2017-Nov-12 16:42N 38°59' W 074°41'13 6.3
2017-Nov-12 14:34N 38°49' W 074°53'1 6.7
2017-Nov-12 14:22N 38°49' W 074°54'5 6.9
2017-Nov-12 13:42N 38°48' W 075°00'2 7.7
2017-Nov-12 13:27N 38°49' W 075°02'4 8.1
2017-Nov-12 12:59N 38°53' W 075°04'4 8.4
2017-Nov-12 12:30N 38°56' W 075°07'4 7.5
2017-Nov-12 12:00N 38°60' W 075°09'2 3.9
2017-Nov-12 11:30N 39°01' W 075°10'1 1.2
2017-Nov-12 11:01N 39°02' W 075°10'3 6.5
2017-Nov-12 10:30N 39°05' W 075°11'4 8.1
2017-Nov-12 10:00N 39°09' W 075°14'4 7.1
2017-Nov-12 09:30N 39°11' W 075°17'3 6.3
2017-Nov-12 09:00N 39°14' W 075°19'3 6.2
2017-Nov-12 08:30N 39°17' W 075°21'3 6.2
2017-Nov-12 08:00N 39°19' W 075°24'3 6.5
2017-Nov-12 07:30N 39°21' W 075°27'3 6.6
2017-Nov-12 07:00N 39°24' W 075°30'4 7.5
2017-Nov-12 06:30N 39°27' W 075°33'4 7.4
2017-Nov-12 06:00N 39°30' W 075°33'3 6.8
2017-Nov-12 05:30N 39°34' W 075°35'5 9.2
2017-Nov-12 05:00N 39°33' W 075°40'4 8.9
2017-Nov-12 04:30N 39°32' W 075°46'4 7.5
2017-Nov-12 04:00N 39°32' W 075°51'4 7.3
2017-Nov-12 03:30N 39°30' W 075°55'4 7.3
2017-Nov-12 03:00N 39°28' W 075°59'4 7.0
2017-Nov-12 02:30N 39°25' W 076°02'3 6.7
2017-Nov-12 02:00N 39°23' W 076°05'3 6.7
2017-Nov-12 01:30N 39°21' W 076°09'3 6.4
2017-Nov-12 01:00N 39°19' W 076°12'4 6.4
2017-Nov-12 00:24N 39°16' W 076°14'4 6.6
2017-Nov-11 23:49N 39°12' W 076°16'4 6.9
2017-Nov-11 23:11N 39°09' W 076°19'1 6.9
2017-Nov-11 23:00N 39°09' W 076°21'4 7.3
2017-Nov-11 22:30N 39°10' W 076°25'3 6.8
2017-Nov-11 22:00N 39°12' W 076°29'1 1.3
2017-Nov-11 21:30N 39°13' W 076°29'0 0.0
2017-Nov-11 21:00N 39°13' W 076°29'0 0.0
2017-Nov-11 20:30N 39°13' W 076°29'0 0.0
2017-Nov-11 20:00N 39°13' W 076°29'0 0.0
2017-Nov-11 19:30N 39°13' W 076°29'0 0.0
2017-Nov-11 19:00N 39°13' W 076°29'0 0.0
2017-Nov-11 18:30N 39°13' W 076°29'0 0.0
2017-Nov-11 18:00N 39°13' W 076°29'0 0.0
2017-Nov-11 17:30N 39°13' W 076°29'0 0.0
2017-Nov-11 17:00N 39°13' W 076°29'0 0.0
2017-Nov-11 16:30N 39°13' W 076°29'0 0.0
2017-Nov-11 16:00N 39°13' W 076°29'0 0.0
2017-Nov-11 15:30N 39°13' W 076°29'0 0.0
2017-Nov-11 15:00N 39°13' W 076°29'0 0.0
2017-Nov-11 14:30N 39°13' W 076°29'0 0.0
2017-Nov-11 14:00N 39°13' W 076°29'0 0.0
2017-Nov-11 13:30N 39°13' W 076°29'0 0.0
2017-Nov-11 13:00N 39°13' W 076°29'0 0.0
2017-Nov-11 12:30N 39°13' W 076°29'0 0.0
2017-Nov-11 12:00N 39°13' W 076°29'0 0.0
2017-Nov-11 11:30N 39°13' W 076°29'0 0.0
2017-Nov-11 11:00N 39°13' W 076°29'0 0.0
2017-Nov-11 10:30N 39°13' W 076°29'0 0.0
2017-Nov-11 10:00N 39°13' W 076°29'0 0.0
2017-Nov-11 09:30N 39°13' W 076°29'0 0.0
2017-Nov-11 09:00N 39°13' W 076°29'0 0.0
2017-Nov-11 08:30N 39°13' W 076°29'0 0.0
2017-Nov-11 08:00N 39°13' W 076°29'0 0.0
2017-Nov-11 07:30N 39°13' W 076°29'0 0.0
2017-Nov-11 07:00N 39°13' W 076°29'0 0.0
2017-Nov-11 06:30N 39°13' W 076°29'0 0.0
2017-Nov-11 06:00N 39°13' W 076°29'0 0.0
2017-Nov-11 05:30N 39°13' W 076°29'0 0.0
2017-Nov-11 05:00N 39°13' W 076°29'0 0.0
2017-Nov-11 04:30N 39°13' W 076°29'0 0.0
2017-Nov-11 04:00N 39°13' W 076°29'0 0.0
2017-Nov-11 03:30N 39°13' W 076°29'0 0.0
2017-Nov-11 03:00N 39°13' W 076°29'0 0.0
2017-Nov-11 02:30N 39°13' W 076°29'0 0.0
2017-Nov-11 02:00N 39°13' W 076°29'0 0.0
2017-Nov-11 01:30N 39°13' W 076°29'0 0.0
2017-Nov-11 01:00N 39°13' W 076°29'0 0.0
2017-Nov-11 00:30N 39°13' W 076°29'0 0.0
2017-Nov-11 00:00N 39°13' W 076°29'0 0.0
2017-Nov-10 23:30N 39°13' W 076°29'2 4.2
2017-Nov-10 23:00N 39°13' W 076°31'3 5.6
2017-Nov-10 22:30N 39°15' W 076°34'0 0.0
2017-Nov-10 22:00N 39°15' W 076°34'0 0.0
2017-Nov-10 21:30N 39°15' W 076°34'0 0.0
2017-Nov-10 21:00N 39°15' W 076°34'0 0.0
2017-Nov-10 20:30N 39°15' W 076°34'0 0.0
2017-Nov-10 20:00N 39°15' W 076°34'0 0.0
2017-Nov-10 19:30N 39°15' W 076°34'0 0.0
2017-Nov-10 19:00N 39°15' W 076°34'0 0.3
2017-Nov-10 18:30N 39°15' W 076°34'1 2.0
2017-Nov-10 18:00N 39°16' W 076°33'0 0.0
2017-Nov-10 17:30N 39°16' W 076°33'0 0.0
2017-Nov-10 17:00N 39°16' W 076°33'0 0.0
2017-Nov-10 16:30N 39°16' W 076°33'0 0.0
2017-Nov-10 16:00N 39°16' W 076°33'2 3.4
2017-Nov-10 15:30N 39°14' W 076°33'3 6.8
2017-Nov-10 15:00N 39°12' W 076°29'1 1.6
2017-Nov-10 14:30N 39°13' W 076°29'0 0.0
2017-Nov-10 14:00N 39°13' W 076°29'0 0.0
2017-Nov-10 13:30N 39°13' W 076°29'0 0.0
2017-Nov-10 13:00N 39°13' W 076°29'0 0.0
2017-Nov-10 12:30N 39°13' W 076°29'0 0.9
2017-Nov-10 12:00N 39°12' W 076°29'2 4.7
2017-Nov-10 11:30N 39°11' W 076°27'3 6.7
2017-Nov-10 11:00N 39°10' W 076°23'3 6.5
2017-Nov-10 10:30N 39°09' W 076°19'5 9.4
2017-Nov-10 10:00N 39°13' W 076°15'510.0
2017-Nov-10 09:30N 39°18' W 076°13'5 9.9
2017-Nov-10 09:00N 39°22' W 076°09'5 9.9
2017-Nov-10 08:30N 39°24' W 076°03'5 9.3
2017-Nov-10 08:00N 39°27' W 075°59'4 8.9
2017-Nov-10 07:30N 39°30' W 075°55'4 7.7
2017-Nov-10 07:00N 39°32' W 075°50'3 5.8
2017-Nov-10 06:30N 39°32' W 075°47'3 7.0
2017-Nov-10 06:00N 39°33' W 075°42'3 6.6
2017-Nov-10 05:30N 39°33' W 075°38'3 6.7
2017-Nov-10 05:00N 39°34' W 075°34'4 7.4
2017-Nov-10 04:30N 39°30' W 075°33'3 7.0
2017-Nov-10 04:00N 39°26' W 075°33'4 8.0
2017-Nov-10 03:30N 39°24' W 075°29'4 7.4
2017-Nov-10 03:00N 39°21' W 075°26'3 6.9
2017-Nov-10 02:30N 39°18' W 075°23'3 6.8
2017-Nov-10 02:00N 39°16' W 075°20'3 7.0
2017-Nov-10 01:30N 39°13' W 075°17'4 7.2
2017-Nov-10 01:00N 39°10' W 075°15'4 7.8
2017-Nov-10 00:30N 39°07' W 075°12'4 7.8
2017-Nov-10 00:00N 39°03' W 075°10'53 4.8
2017-Nov-09 12:54N 39°28' W 074°10'6 7.3
2017-Nov-09 12:08N 39°34' W 074°06'1 7.3
2017-Nov-09 11:58N 39°35' W 074°06'3 7.3
2017-Nov-09 11:29N 39°38' W 074°04'4 7.3
2017-Nov-09 10:58N 39°41' W 074°01'4 7.3
2017-Nov-09 10:26N 39°44' W 073°59'  
Track history (hours):
 
Tides and Currents Weather Stations Pressure Air Temp Water Temp Dewpoint Dewpoint Depression Visibility Wind Speed Wind Dir Waves Ship Positions

Discovery Coast

Owner: Dann Marine Towing, LC, Chesapeake City, MD. More information available from US FCC via Universal Licensing System.

Last reported at 2017-Nov-19 08:00 UTC. Time now 2017-Nov-19 08:30 UTC.
Position N 39°24' W 076°04'.

Length 31 m; draft 4.3 m.

Type: Tug. MMSI: 367515850.

Date/timePositionNaut miles runAvg speedWind from/ knotsBaromVisibWave heightAir tempDewpointWater temp
2017-Nov-19 08:00N 39°24' W 076°04'3 5.6
2017-Nov-19 07:30N 39°22' W 076°07'3 5.4
2017-Nov-19 07:00N 39°21' W 076°10'14 6.2
2017-Nov-19 04:45N 39°09' W 076°19'2 7.4
2017-Nov-19 04:30N 39°09' W 076°22'4 7.9
2017-Nov-19 04:00N 39°11' W 076°26'3 5.4
2017-Nov-19 03:30N 39°13' W 076°29'0 0.4
2017-Nov-19 03:00N 39°13' W 076°29'0 0.0
2017-Nov-19 02:30N 39°13' W 076°29'0 0.0
2017-Nov-19 02:00N 39°13' W 076°29'0 0.0
2017-Nov-19 01:30N 39°13' W 076°29'0 0.0
2017-Nov-19 01:00N 39°13' W 076°29'0 0.0
2017-Nov-19 00:30N 39°13' W 076°29'0 0.0
2017-Nov-19 00:00N 39°13' W 076°29'0 0.0
2017-Nov-18 23:30N 39°13' W 076°29'0 0.0
2017-Nov-18 23:00N 39°13' W 076°29'0 0.0
2017-Nov-18 22:30N 39°13' W 076°29'0 0.0
2017-Nov-18 22:00N 39°13' W 076°29'0 0.0
2017-Nov-18 21:30N 39°13' W 076°29'0 0.0
2017-Nov-18 21:00N 39°13' W 076°29'0 0.0
2017-Nov-18 20:30N 39°13' W 076°29'0 0.0
2017-Nov-18 20:00N 39°13' W 076°29'0 0.0
2017-Nov-18 19:30N 39°13' W 076°29'0 0.0
2017-Nov-18 19:00N 39°13' W 076°29'0 0.0
2017-Nov-18 18:30N 39°13' W 076°29'0 0.0
2017-Nov-18 18:00N 39°13' W 076°29'0 0.0
2017-Nov-18 17:30N 39°13' W 076°29'0 0.0
2017-Nov-18 17:00N 39°13' W 076°29'0 0.0
2017-Nov-18 16:30N 39°13' W 076°29'0 0.0
2017-Nov-18 16:00N 39°13' W 076°29'0 0.0
2017-Nov-18 15:30N 39°13' W 076°29'0 0.0
2017-Nov-18 15:00N 39°13' W 076°29'0 0.0
2017-Nov-18 14:30N 39°13' W 076°29'0 0.0
2017-Nov-18 14:00N 39°13' W 076°29'0 0.0
2017-Nov-18 13:30N 39°13' W 076°29'0 0.0
2017-Nov-18 13:00N 39°13' W 076°29'0 0.0
2017-Nov-18 12:30N 39°13' W 076°29'0 0.0
2017-Nov-18 12:00N 39°13' W 076°29'0 0.0
2017-Nov-18 11:30N 39°13' W 076°29'0 0.0
2017-Nov-18 11:00N 39°13' W 076°29'0 0.0
2017-Nov-18 10:30N 39°13' W 076°29'0 0.0
2017-Nov-18 10:00N 39°13' W 076°29'0 0.0
2017-Nov-18 09:30N 39°13' W 076°29'0 0.0
2017-Nov-18 09:00N 39°13' W 076°29'0 0.0
2017-Nov-18 08:30N 39°13' W 076°29'0 0.0
2017-Nov-18 08:00N 39°13' W 076°29'0 0.0
2017-Nov-18 07:30N 39°13' W 076°29'0 0.0
2017-Nov-18 07:00N 39°13' W 076°29'0 0.0
2017-Nov-18 06:30N 39°13' W 076°29'0 0.0
2017-Nov-18 06:00N 39°13' W 076°29'0 0.0
2017-Nov-18 05:30N 39°13' W 076°29'0 0.0
2017-Nov-18 05:00N 39°13' W 076°29'0 0.0
2017-Nov-18 04:30N 39°13' W 076°29'0 0.0
2017-Nov-18 04:00N 39°13' W 076°29'0 0.0
2017-Nov-18 03:30N 39°13' W 076°29'0 0.0
2017-Nov-18 03:00N 39°13' W 076°29'0 0.0
2017-Nov-18 02:30N 39°13' W 076°29'0 0.0
2017-Nov-18 02:00N 39°13' W 076°29'0 0.0
2017-Nov-18 01:30N 39°13' W 076°29'0 0.0
2017-Nov-18 01:00N 39°13' W 076°29'0 0.0
2017-Nov-18 00:30N 39°13' W 076°29'0 0.0
2017-Nov-18 00:00N 39°13' W 076°29'0 0.0
2017-Nov-17 23:30N 39°13' W 076°29'0 0.0
2017-Nov-17 23:00N 39°13' W 076°29'0 0.0
2017-Nov-17 20:26N 39°13' W 076°29'0 0.3
2017-Nov-17 20:00N 39°13' W 076°29'0 0.2
2017-Nov-17 19:30N 39°13' W 076°29'0 0.0
2017-Nov-17 19:00N 39°13' W 076°29'0 0.0
2017-Nov-17 18:30N 39°13' W 076°29'0 0.5
2017-Nov-17 18:00N 39°12' W 076°29'4 7.5
2017-Nov-17 17:30N 39°14' W 076°33'1 1.6
2017-Nov-17 17:00N 39°15' W 076°34'0 0.0
2017-Nov-17 16:30N 39°15' W 076°34'0 0.0
2017-Nov-17 16:00N 39°15' W 076°34'0 0.0
2017-Nov-17 15:30N 39°15' W 076°34'0 0.0
2017-Nov-17 15:00N 39°15' W 076°34'0 0.0
2017-Nov-17 14:30N 39°15' W 076°34'0 0.0
2017-Nov-17 14:00N 39°15' W 076°34'0 0.0
2017-Nov-17 13:30N 39°15' W 076°34'0 0.0
2017-Nov-17 13:00N 39°15' W 076°34'0 0.0
2017-Nov-17 12:30N 39°15' W 076°34'0 0.0
2017-Nov-17 12:00N 39°15' W 076°34'0 0.0
2017-Nov-17 11:30N 39°15' W 076°34'0 0.0
2017-Nov-17 11:00N 39°15' W 076°34'0 0.0
2017-Nov-17 10:30N 39°15' W 076°34'0 0.0
2017-Nov-17 10:00N 39°15' W 076°34'0 0.0
2017-Nov-17 09:30N 39°15' W 076°34'0 0.0
2017-Nov-17 09:00N 39°15' W 076°34'0 0.0
2017-Nov-17 08:30N 39°15' W 076°34'0 0.0
2017-Nov-17 08:00N 39°15' W 076°34'0 0.0
2017-Nov-17 07:30N 39°15' W 076°34'1 1.3
2017-Nov-17 07:00N 39°15' W 076°33'4 8.1
2017-Nov-17 06:30N 39°12' W 076°30'1 2.0
2017-Nov-17 06:00N 39°13' W 076°29'0 0.4
2017-Nov-17 05:30N 39°13' W 076°29'2 3.6
2017-Nov-17 05:00N 39°11' W 076°27'8 7.7
2017-Nov-17 03:59N 39°11' W 076°17'6 9.7
2017-Nov-17 03:21N 39°16' W 076°14'4 9.9
2017-Nov-17 03:00N 39°19' W 076°12'5 9.9
2017-Nov-17 02:30N 39°22' W 076°07'5 9.1
2017-Nov-17 02:00N 39°25' W 076°02'4 8.8
2017-Nov-17 01:30N 39°28' W 075°58'4 8.1
2017-Nov-17 01:00N 39°30' W 075°54'3 7.0
2017-Nov-17 00:30N 39°32' W 075°50'3 6.6
2017-Nov-17 00:00N 39°32' W 075°46'3 6.6
2017-Nov-16 23:30N 39°33' W 075°42'3 6.4
2017-Nov-16 23:00N 39°33' W 075°38'3 6.5
2017-Nov-16 22:30N 39°34' W 075°33'3 6.4
2017-Nov-16 22:00N 39°30' W 075°33'3 7.0
2017-Nov-16 21:30N 39°27' W 075°33'4 7.1
2017-Nov-16 21:00N 39°24' W 075°30'3 6.7
2017-Nov-16 20:30N 39°22' W 075°27'3 6.5
2017-Nov-16 20:00N 39°19' W 075°24'3 6.2
2017-Nov-16 19:30N 39°17' W 075°22'3 6.6
2017-Nov-16 19:00N 39°15' W 075°19'3 6.5
2017-Nov-16 18:30N 39°12' W 075°17'3 6.1
2017-Nov-16 18:00N 39°09' W 075°15'4 7.0
2017-Nov-16 17:30N 39°06' W 075°12'4 7.4
2017-Nov-16 16:59N 39°03' W 075°10'4 7.6
2017-Nov-16 16:30N 38°59' W 075°08'4 7.3
2017-Nov-16 15:59N 38°56' W 075°06'13 4.4
2017-Nov-16 12:56N 38°50' W 074°50'51 7.3
2017-Nov-16 05:58N 39°30' W 074°09'3 7.5
2017-Nov-16 05:30N 39°33' W 074°07'4 7.5
2017-Nov-16 05:00N 39°36' W 074°04'4 7.4
2017-Nov-16 04:25N 39°40' W 074°02'3 7.5
2017-Nov-16 03:59N 39°43' W 073°60'4 7.5
2017-Nov-16 03:30N 39°46' W 073°58'38 7.7
2017-Nov-15 22:36N 40°24' W 073°53'2 7.7
2017-Nov-15 22:18N 40°26' W 073°53'2 7.5
2017-Nov-15 22:00N 40°29' W 073°54'3 6.3
2017-Nov-15 21:29N 40°30' W 073°57'3 5.7
2017-Nov-15 21:00N 40°32' W 074°01'3 6.2
2017-Nov-15 20:30N 40°34' W 074°02'3 6.4
2017-Nov-15 20:00N 40°38' W 074°03'1 2.5
2017-Nov-15 19:30N 40°39' W 074°02'2 4.5
2017-Nov-15 19:00N 40°41' W 074°01'2 4.7
2017-Nov-15 18:30N 40°42' W 073°59'1 1.3
2017-Nov-15 18:00N 40°42' W 073°58'0 0.0
2017-Nov-15 17:30N 40°42' W 073°58'0 0.0
2017-Nov-15 17:00N 40°42' W 073°58'0 0.0
2017-Nov-15 16:30N 40°42' W 073°58'0 0.0
2017-Nov-15 16:00N 40°42' W 073°58'0 0.0
2017-Nov-15 15:30N 40°42' W 073°58'0 0.2
2017-Nov-15 15:00N 40°43' W 073°58'0 0.0
2017-Nov-15 14:30N 40°43' W 073°58'0 0.0
2017-Nov-15 14:00N 40°43' W 073°58'0 0.0
2017-Nov-15 13:30N 40°43' W 073°58'0 0.0
2017-Nov-15 13:00N 40°43' W 073°58'0 0.0
2017-Nov-15 12:30N 40°43' W 073°58'0 0.0
2017-Nov-15 12:00N 40°43' W 073°58'0 0.0
2017-Nov-15 11:30N 40°43' W 073°58'0 0.0
2017-Nov-15 11:00N 40°43' W 073°58'0 0.0
2017-Nov-15 10:30N 40°43' W 073°58'0 0.0
2017-Nov-15 10:00N 40°43' W 073°58'0 0.0
2017-Nov-15 09:30N 40°43' W 073°58'0 0.0
2017-Nov-15 09:00N 40°43' W 073°58'0 0.0
2017-Nov-15 08:30N 40°43' W 073°58'0 0.0
2017-Nov-15 08:00N 40°43' W 073°58'0 0.0
2017-Nov-15 07:30N 40°43' W 073°58'0 0.0
2017-Nov-15 07:00N 40°43' W 073°58'0 0.0
2017-Nov-15 06:30N 40°43' W 073°58'0 0.0
2017-Nov-15 06:00N 40°43' W 073°58'0 0.0
2017-Nov-15 05:30N 40°43' W 073°58'0 0.0
2017-Nov-15 05:00N 40°43' W 073°58'0 0.0
2017-Nov-15 04:30N 40°43' W 073°58'0 0.0
2017-Nov-15 04:00N 40°43' W 073°58'0 0.0
2017-Nov-15 03:30N 40°43' W 073°58'0 0.0
2017-Nov-15 03:00N 40°43' W 073°58'0 0.0
2017-Nov-15 02:30N 40°43' W 073°58'0 0.0
2017-Nov-15 02:00N 40°43' W 073°58'0 0.0
2017-Nov-15 01:30N 40°43' W 073°58'0 0.0
2017-Nov-15 01:00N 40°43' W 073°58'0 0.0
2017-Nov-15 00:30N 40°43' W 073°58'0 0.0
2017-Nov-15 00:00N 40°43' W 073°58'0 0.0
2017-Nov-14 23:30N 40°43' W 073°58'0 0.0
2017-Nov-14 23:00N 40°43' W 073°58'0 0.0
2017-Nov-14 22:30N 40°43' W 073°58'0 0.0
2017-Nov-14 22:00N 40°43' W 073°58'0 0.0
2017-Nov-14 21:30N 40°43' W 073°58'0 0.0
2017-Nov-14 21:00N 40°43' W 073°58'0 0.0
2017-Nov-14 20:30N 40°43' W 073°58'0 0.0
2017-Nov-14 20:00N 40°43' W 073°58'0 0.0
2017-Nov-14 19:30N 40°43' W 073°58'0 0.0
2017-Nov-14 19:00N 40°43' W 073°58'0 0.0
2017-Nov-14 18:30N 40°43' W 073°58'0 0.0
2017-Nov-14 18:00N 40°43' W 073°58'0 0.0
2017-Nov-14 17:30N 40°43' W 073°58'0 0.0
2017-Nov-14 17:00N 40°43' W 073°58'0 0.0
2017-Nov-14 16:30N 40°43' W 073°58'0 0.0
2017-Nov-14 16:00N 40°43' W 073°58'0 0.0
2017-Nov-14 15:30N 40°43' W 073°58'0 0.0
2017-Nov-14 15:00N 40°43' W 073°58'0 0.0
2017-Nov-14 14:30N 40°43' W 073°58'0 0.0
2017-Nov-14 14:00N 40°43' W 073°58'0 0.0
2017-Nov-14 13:30N 40°43' W 073°58'0 0.0
2017-Nov-14 13:00N 40°43' W 073°58'0 0.0
2017-Nov-14 12:30N 40°43' W 073°58'0 0.0
2017-Nov-14 12:00N 40°43' W 073°58'0 0.0
2017-Nov-14 11:30N 40°43' W 073°58'0 0.0
2017-Nov-14 11:00N 40°43' W 073°58'0 0.0
2017-Nov-14 10:30N 40°43' W 073°58'0 0.0
2017-Nov-14 10:00N 40°43' W 073°58'0 0.0
2017-Nov-14 09:30N 40°43' W 073°58'0 0.0
2017-Nov-14 09:00N 40°43' W 073°58'0 0.0
2017-Nov-14 08:30N 40°43' W 073°58'0 0.0
2017-Nov-14 08:00N 40°43' W 073°58'0 0.0
2017-Nov-14 07:30N 40°43' W 073°58'0 0.0
2017-Nov-14 07:00N 40°43' W 073°58'0 0.0
2017-Nov-14 06:30N 40°43' W 073°58'0 0.0
2017-Nov-14 06:00N 40°43' W 073°58'0 0.0
2017-Nov-14 05:30N 40°43' W 073°58'0 0.0
2017-Nov-14 05:00N 40°43' W 073°58'0 0.0
2017-Nov-14 04:30N 40°43' W 073°58'0 0.0
2017-Nov-14 04:00N 40°43' W 073°58'0 0.0
2017-Nov-14 03:30N 40°43' W 073°58'0 0.0
2017-Nov-14 03:00N 40°43' W 073°58'0 0.0
2017-Nov-14 02:30N 40°43' W 073°58'0 0.0
2017-Nov-14 02:00N 40°43' W 073°58'0 0.0
2017-Nov-14 01:30N 40°43' W 073°58'0 0.0
2017-Nov-14 01:00N 40°43' W 073°58'0 0.0
2017-Nov-14 00:30N 40°43' W 073°58'0 0.0
2017-Nov-14 00:00N 40°43' W 073°58'0 0.0
2017-Nov-13 23:30N 40°43' W 073°58'0 0.0
2017-Nov-13 23:00N 40°43' W 073°58'0 0.0
2017-Nov-13 22:30N 40°43' W 073°58'0 0.0
2017-Nov-13 22:00N 40°43' W 073°58'52 2.6
2017-Nov-13 02:00N 39°51' W 073°58'4 7.1
2017-Nov-13 01:29N 39°47' W 073°58'6 6.8
2017-Nov-13 00:32N 39°41' W 074°01'8 6.8
2017-Nov-12 23:24N 39°34' W 074°06'3 6.8
2017-Nov-12 22:53N 39°31' W 074°08'38 6.7
2017-Nov-12 17:16N 39°02' W 074°38'4 6.3
2017-Nov-12 16:42N 38°59' W 074°41'13 6.3
2017-Nov-12 14:34N 38°49' W 074°53'1 6.7
2017-Nov-12 14:22N 38°49' W 074°54'5 6.9
2017-Nov-12 13:42N 38°48' W 075°00'2 7.7
2017-Nov-12 13:27N 38°49' W 075°02'4 8.1
2017-Nov-12 12:59N 38°53' W 075°04'4 8.4
2017-Nov-12 12:30N 38°56' W 075°07'4 7.5
2017-Nov-12 12:00N 38°60' W 075°09'2 3.9
2017-Nov-12 11:30N 39°01' W 075°10'1 1.2
2017-Nov-12 11:01N 39°02' W 075°10'3 6.5
2017-Nov-12 10:30N 39°05' W 075°11'4 8.1
2017-Nov-12 10:00N 39°09' W 075°14'4 7.1
2017-Nov-12 09:30N 39°11' W 075°17'3 6.3
2017-Nov-12 09:00N 39°14' W 075°19'3 6.2
2017-Nov-12 08:30N 39°17' W 075°21'3 6.2
2017-Nov-12 08:00N 39°19' W 075°24'3 6.5
2017-Nov-12 07:30N 39°21' W 075°27'3 6.6
2017-Nov-12 07:00N 39°24' W 075°30'4 7.5
2017-Nov-12 06:30N 39°27' W 075°33'4 7.4
2017-Nov-12 06:00N 39°30' W 075°33'3 6.8
2017-Nov-12 05:30N 39°34' W 075°35'5 9.2
2017-Nov-12 05:00N 39°33' W 075°40'4 8.9
2017-Nov-12 04:30N 39°32' W 075°46'4 7.5
2017-Nov-12 04:00N 39°32' W 075°51'4 7.3
2017-Nov-12 03:30N 39°30' W 075°55'4 7.3
2017-Nov-12 03:00N 39°28' W 075°59'4 7.0
2017-Nov-12 02:30N 39°25' W 076°02'3 6.7
2017-Nov-12 02:00N 39°23' W 076°05'3 6.7
2017-Nov-12 01:30N 39°21' W 076°09'3 6.4
2017-Nov-12 01:00N 39°19' W 076°12'4 6.4
2017-Nov-12 00:24N 39°16' W 076°14'4 6.6
2017-Nov-11 23:49N 39°12' W 076°16'4 6.9
2017-Nov-11 23:11N 39°09' W 076°19'1 6.9
2017-Nov-11 23:00N 39°09' W 076°21'4 7.3
2017-Nov-11 22:30N 39°10' W 076°25'3 6.8
2017-Nov-11 22:00N 39°12' W 076°29'1 1.3
2017-Nov-11 21:30N 39°13' W 076°29'0 0.0
2017-Nov-11 21:00N 39°13' W 076°29'0 0.0
2017-Nov-11 20:30N 39°13' W 076°29'0 0.0
2017-Nov-11 20:00N 39°13' W 076°29'0 0.0
2017-Nov-11 19:30N 39°13' W 076°29'0 0.0
2017-Nov-11 19:00N 39°13' W 076°29'0 0.0
2017-Nov-11 18:30N 39°13' W 076°29'0 0.0
2017-Nov-11 18:00N 39°13' W 076°29'0 0.0
2017-Nov-11 17:30N 39°13' W 076°29'0 0.0
2017-Nov-11 17:00N 39°13' W 076°29'0 0.0
2017-Nov-11 16:30N 39°13' W 076°29'0 0.0
2017-Nov-11 16:00N 39°13' W 076°29'0 0.0
2017-Nov-11 15:30N 39°13' W 076°29'0 0.0
2017-Nov-11 15:00N 39°13' W 076°29'0 0.0
2017-Nov-11 14:30N 39°13' W 076°29'0 0.0
2017-Nov-11 14:00N 39°13' W 076°29'0 0.0
2017-Nov-11 13:30N 39°13' W 076°29'0 0.0
2017-Nov-11 13:00N 39°13' W 076°29'0 0.0
2017-Nov-11 12:30N 39°13' W 076°29'0 0.0
2017-Nov-11 12:00N 39°13' W 076°29'0 0.0
2017-Nov-11 11:30N 39°13' W 076°29'0 0.0
2017-Nov-11 11:00N 39°13' W 076°29'0 0.0
2017-Nov-11 10:30N 39°13' W 076°29'0 0.0
2017-Nov-11 10:00N 39°13' W 076°29'0 0.0
2017-Nov-11 09:30N 39°13' W 076°29'0 0.0
2017-Nov-11 09:00N 39°13' W 076°29'0 0.0
2017-Nov-11 08:30N 39°13' W 076°29'0 0.0
2017-Nov-11 08:00N 39°13' W 076°29'0 0.0
2017-Nov-11 07:30N 39°13' W 076°29'0 0.0
2017-Nov-11 07:00N 39°13' W 076°29'0 0.0
2017-Nov-11 06:30N 39°13' W 076°29'0 0.0
2017-Nov-11 06:00N 39°13' W 076°29'0 0.0
2017-Nov-11 05:30N 39°13' W 076°29'0 0.0
2017-Nov-11 05:00N 39°13' W 076°29'0 0.0
2017-Nov-11 04:30N 39°13' W 076°29'0 0.0
2017-Nov-11 04:00N 39°13' W 076°29'0 0.0
2017-Nov-11 03:30N 39°13' W 076°29'0 0.0
2017-Nov-11 03:00N 39°13' W 076°29'0 0.0
2017-Nov-11 02:30N 39°13' W 076°29'0 0.0
2017-Nov-11 02:00N 39°13' W 076°29'0 0.0
2017-Nov-11 01:30N 39°13' W 076°29'0 0.0
2017-Nov-11 01:00N 39°13' W 076°29'0 0.0
2017-Nov-11 00:30N 39°13' W 076°29'0 0.0
2017-Nov-11 00:00N 39°13' W 076°29'0 0.0
2017-Nov-10 23:30N 39°13' W 076°29'2 4.2
2017-Nov-10 23:00N 39°13' W 076°31'3 5.6
2017-Nov-10 22:30N 39°15' W 076°34'0 0.0
2017-Nov-10 22:00N 39°15' W 076°34'0 0.0
2017-Nov-10 21:30N 39°15' W 076°34'0 0.0
2017-Nov-10 21:00N 39°15' W 076°34'0 0.0
2017-Nov-10 20:30N 39°15' W 076°34'0 0.0
2017-Nov-10 20:00N 39°15' W 076°34'0 0.0
2017-Nov-10 19:30N 39°15' W 076°34'0 0.0
2017-Nov-10 19:00N 39°15' W 076°34'0 0.3
2017-Nov-10 18:30N 39°15' W 076°34'1 2.0
2017-Nov-10 18:00N 39°16' W 076°33'0 0.0
2017-Nov-10 17:30N 39°16' W 076°33'0 0.0
2017-Nov-10 17:00N 39°16' W 076°33'0 0.0
2017-Nov-10 16:30N 39°16' W 076°33'0 0.0
2017-Nov-10 16:00N 39°16' W 076°33'2 3.4
2017-Nov-10 15:30N 39°14' W 076°33'3 6.8
2017-Nov-10 15:00N 39°12' W 076°29'1 1.6
2017-Nov-10 14:30N 39°13' W 076°29'0 0.0
2017-Nov-10 14:00N 39°13' W 076°29'0 0.0
2017-Nov-10 13:30N 39°13' W 076°29'0 0.0
2017-Nov-10 13:00N 39°13' W 076°29'0 0.0
2017-Nov-10 12:30N 39°13' W 076°29'0 0.9
2017-Nov-10 12:00N 39°12' W 076°29'2 4.7
2017-Nov-10 11:30N 39°11' W 076°27'3 6.7
2017-Nov-10 11:00N 39°10' W 076°23'3 6.5
2017-Nov-10 10:30N 39°09' W 076°19'5 9.4
2017-Nov-10 10:00N 39°13' W 076°15'510.0
2017-Nov-10 09:30N 39°18' W 076°13'5 9.9
2017-Nov-10 09:00N 39°22' W 076°09'5 9.9
2017-Nov-10 08:30N 39°24' W 076°03'5 9.3
2017-Nov-10 08:00N 39°27' W 075°59'4 8.9
2017-Nov-10 07:30N 39°30' W 075°55'4 7.7
2017-Nov-10 07:00N 39°32' W 075°50'3 5.8
2017-Nov-10 06:30N 39°32' W 075°47'3 7.0
2017-Nov-10 06:00N 39°33' W 075°42'3 6.6
2017-Nov-10 05:30N 39°33' W 075°38'3 6.7
2017-Nov-10 05:00N 39°34' W 075°34'4 7.4
2017-Nov-10 04:30N 39°30' W 075°33'3 7.0
2017-Nov-10 04:00N 39°26' W 075°33'4 8.0
2017-Nov-10 03:30N 39°24' W 075°29'4 7.4
2017-Nov-10 03:00N 39°21' W 075°26'3 6.9
2017-Nov-10 02:30N 39°18' W 075°23'3 6.8
2017-Nov-10 02:00N 39°16' W 075°20'3 7.0
2017-Nov-10 01:30N 39°13' W 075°17'4 7.2
2017-Nov-10 01:00N 39°10' W 075°15'4 7.8
2017-Nov-10 00:30N 39°07' W 075°12'4 7.8
2017-Nov-10 00:00N 39°03' W 075°10'53 4.8
2017-Nov-09 12:54N 39°28' W 074°10'6 7.3
2017-Nov-09 12:08N 39°34' W 074°06'1 7.3
2017-Nov-09 11:58N 39°35' W 074°06'3 7.3
2017-Nov-09 11:29N 39°38' W 074°04'4 7.3
2017-Nov-09 10:58N 39°41' W 074°01'4 7.3
2017-Nov-09 10:26N 39°44' W 073°59'  

Dump ship's entire track history